createdAt,value
2019-05-30T00:01:54.281Z,72.88
2019-05-30T00:06:58.630Z,72.88
2019-05-30T00:12:03.056Z,71.84
2019-05-30T00:17:06.484Z,72.04
2019-05-30T00:22:09.948Z,71.65
2019-05-30T00:27:13.327Z,72.30
2019-05-30T00:32:16.867Z,72.57
2019-05-30T00:37:20.298Z,73.22
2019-05-30T00:42:23.673Z,73.94
2019-05-30T00:47:27.007Z,74.50
2019-05-30T00:52:30.394Z,74.28
2019-05-30T00:57:33.717Z,73.60
2019-05-30T01:02:37.118Z,74.96
2019-05-30T01:07:40.500Z,75.45
2019-05-30T01:12:43.841Z,76.13
2019-05-30T01:17:47.208Z,79.21
2019-05-30T01:22:50.589Z,75.98
2019-05-30T01:27:53.974Z,77.02
2019-05-30T01:32:57.693Z,79.44
2019-05-30T01:38:01.881Z,79.70
2019-05-30T01:43:06.176Z,78.73
2019-05-30T01:48:09.602Z,76.21
2019-05-30T01:53:13.048Z,76.66
2019-05-30T01:58:16.434Z,77.14
2019-05-30T02:03:22.290Z,77.45
2019-05-30T02:08:25.703Z,79.04
2019-05-30T02:13:29.160Z,78.29
2019-05-30T02:18:32.572Z,77.80
2019-05-30T02:23:35.984Z,79.06
2019-05-30T02:28:39.462Z,78.27
2019-05-30T02:33:42.835Z,78.67
2019-05-30T02:38:46.156Z,79.21
2019-05-30T02:43:49.549Z,79.69
2019-05-30T02:48:58.668Z,78.95
2019-05-30T02:53:58.052Z,78.09
2019-05-30T02:59:03.929Z,80.15
2019-05-30T03:04:08.723Z,80.39
2019-05-30T03:09:13.221Z,82.58
2019-05-30T03:14:19.858Z,79.48
2019-05-30T03:19:21.905Z,79.78
2019-05-30T03:24:25.255Z,79.84
2019-05-30T03:29:28.626Z,79.54
2019-05-30T03:34:32.038Z,80.11
2019-05-30T03:39:35.465Z,80.47
2019-05-30T03:44:38.877Z,80.25
2019-05-30T03:49:44.048Z,80.26
2019-05-30T03:54:47.913Z,79.78
2019-05-30T04:00:00.432Z,79.72
2019-05-30T04:05:14.169Z,79.44
2019-05-30T04:10:21.231Z,82.35
2019-05-30T04:15:35.184Z,80.37
2019-05-30T04:20:38.600Z,80.27
2019-05-30T04:25:42.065Z,79.86
2019-05-30T04:30:45.403Z,81.79
2019-05-30T04:35:48.758Z,81.46
2019-05-30T04:40:52.107Z,80.13
2019-05-30T04:45:55.463Z,80.37
2019-05-30T04:50:58.813Z,80.45
2019-05-30T04:56:02.157Z,80.30
2019-05-30T05:01:05.481Z,80.37
2019-05-30T05:06:08.886Z,80.11
2019-05-30T05:11:16.032Z,79.67
2019-05-30T05:16:27.715Z,79.18
2019-05-30T05:21:23.097Z,80.08
2019-05-30T05:26:26.575Z,78.61
2019-05-30T05:31:29.897Z,78.04
2019-05-30T05:36:33.253Z,77.01
2019-05-30T05:41:36.642Z,76.93
2019-05-30T05:46:39.983Z,76.29
2019-05-30T05:51:43.398Z,76.18
2019-05-30T05:56:46.726Z,75.80
2019-05-30T06:01:50.148Z,74.71
2019-05-30T06:06:53.485Z,74.39
2019-05-30T06:11:56.820Z,74.34
2019-05-30T06:17:00.251Z,74.16
2019-05-30T06:22:03.684Z,73.20
2019-05-30T06:27:07.026Z,72.54
2019-05-30T06:32:10.414Z,71.86
2019-05-30T06:37:13.811Z,70.47
2019-05-30T06:42:17.155Z,69.93
2019-05-30T06:47:20.513Z,69.41
2019-05-30T06:52:24.949Z,68.66
2019-05-30T06:57:29.321Z,65.88
2019-05-30T07:02:32.890Z,64.83
2019-05-30T07:07:36.417Z,63.50
2019-05-30T07:12:39.916Z,65.91
2019-05-30T07:17:43.344Z,65.59
2019-05-30T07:22:46.677Z,58.93
2019-05-30T07:27:50.147Z,59.34
2019-05-30T07:32:53.578Z,56.74
2019-05-30T07:37:56.916Z,58.52
2019-05-30T07:43:00.254Z,58.42
2019-05-30T07:48:03.584Z,55.98
2019-05-30T07:53:07.060Z,54.12
2019-05-30T07:58:10.408Z,53.32
2019-05-30T08:03:13.820Z,50.07
2019-05-30T08:08:17.355Z,51.47
2019-05-30T08:13:20.703Z,52.76
2019-05-30T08:18:24.144Z,52.27
2019-05-30T08:23:28.045Z,50.32
2019-05-30T08:28:32.212Z,48.30
2019-05-30T08:33:35.706Z,50.05
2019-05-30T08:38:39.377Z,49.71
2019-05-30T08:43:42.792Z,49.27
2019-05-30T08:48:46.236Z,47.48
2019-05-30T08:53:49.667Z,46.83
2019-05-30T08:58:53.015Z,48.37
2019-05-30T09:03:56.453Z,46.63
2019-05-30T09:08:59.888Z,44.97
2019-05-30T09:14:04.100Z,44.85
2019-05-30T09:19:07.482Z,44.28
2019-05-30T09:24:11.068Z,44.02
2019-05-30T09:29:14.441Z,42.95
2019-05-30T09:34:17.777Z,42.21
2019-05-30T09:39:21.146Z,41.24
2019-05-30T09:44:24.490Z,43.68
2019-05-30T09:49:27.971Z,44.94
2019-05-30T09:54:31.277Z,42.97
2019-05-30T09:59:34.690Z,41.28
2019-05-30T10:04:38.047Z,42.17
2019-05-30T10:09:42.789Z,41.60
2019-05-30T10:14:46.962Z,44.40
2019-05-30T10:19:50.981Z,41.42
2019-05-30T10:24:54.347Z,39.54
2019-05-30T10:29:57.694Z,41.43
2019-05-30T10:35:01.025Z,40.25
2019-05-30T10:40:08.316Z,40.05
2019-05-30T10:45:12.534Z,40.25
2019-05-30T10:50:16.447Z,39.38
2019-05-30T10:55:21.518Z,39.97
2019-05-30T11:00:28.038Z,37.65
2019-05-30T11:05:31.442Z,38.37
2019-05-30T11:10:37.384Z,41.04
2019-05-30T11:15:40.928Z,40.79
2019-05-30T11:20:44.273Z,37.34
2019-05-30T11:25:48.568Z,36.55
2019-05-30T11:30:52.745Z,38.67
2019-05-30T11:35:57.033Z,36.25
2019-05-30T11:41:00.724Z,35.75
2019-05-30T11:46:04.155Z,34.10
2019-05-30T11:51:07.579Z,33.83
2019-05-30T11:56:11.011Z,32.60
2019-05-30T12:01:14.522Z,37.11
2019-05-30T12:06:17.923Z,36.12
2019-05-30T12:11:21.270Z,37.94
2019-05-30T12:16:24.674Z,37.16
2019-05-30T12:21:29.873Z,34.53
2019-05-30T12:26:34.063Z,35.14
2019-05-30T12:31:37.679Z,36.20
2019-05-30T12:36:41.059Z,35.18
2019-05-30T12:41:44.398Z,34.54
2019-05-30T12:46:47.751Z,33.64
2019-05-30T12:51:51.274Z,36.11
2019-05-30T12:56:54.664Z,33.31
2019-05-30T13:01:58.951Z,32.13
2019-05-30T13:07:03.376Z,32.20
2019-05-30T13:12:07.017Z,32.38
2019-05-30T13:17:10.518Z,33.52
2019-05-30T13:22:13.931Z,33.89
2019-05-30T13:27:17.763Z,29.65
2019-05-30T13:32:21.073Z,30.40
2019-05-30T13:37:24.532Z,29.01
2019-05-30T13:42:27.876Z,29.20
2019-05-30T13:47:31.361Z,30.06
2019-05-30T13:52:34.715Z,30.63
2019-05-30T13:57:38.066Z,32.17
2019-05-30T14:02:41.552Z,31.14
2019-05-30T14:07:44.913Z,31.25
2019-05-30T14:12:48.391Z,31.10
2019-05-30T14:17:51.715Z,31.68
2019-05-30T14:22:55.157Z,32.57
2019-05-30T14:27:58.829Z,32.46
2019-05-30T14:33:02.187Z,32.60
2019-05-30T14:38:06.643Z,33.02
2019-05-30T14:43:11.410Z,33.68
2019-05-30T14:48:14.932Z,32.13
2019-05-30T14:53:18.254Z,32.63
2019-05-30T14:58:21.619Z,31.82
2019-05-30T15:03:24.999Z,31.61
2019-05-30T15:08:28.413Z,31.15
2019-05-30T15:13:31.777Z,31.15
2019-05-30T15:18:35.157Z,30.37
2019-05-30T15:23:38.493Z,29.31
2019-05-30T15:28:42.911Z,30.44
2019-05-30T15:33:46.341Z,29.75
2019-05-30T15:38:49.679Z,30.44
2019-05-30T15:43:53.022Z,29.58
2019-05-30T15:48:56.425Z,31.24
2019-05-30T15:53:59.772Z,24.77
2019-05-30T15:59:03.247Z,23.95
2019-05-30T16:04:06.647Z,25.12
2019-05-30T16:09:10.633Z,24.86
2019-05-30T16:14:15.223Z,23.76
2019-05-30T16:19:24.375Z,23.26
2019-05-30T16:24:24.766Z,23.05
2019-05-30T16:29:28.171Z,24.77
2019-05-30T16:34:32.839Z,24.78
2019-05-30T16:39:36.344Z,25.44
2019-05-30T16:44:39.735Z,25.37
2019-05-30T16:49:43.097Z,26.23
2019-05-30T16:54:46.426Z,26.35
2019-05-30T16:59:50.798Z,26.82
2019-05-30T17:04:54.173Z,27.89
2019-05-30T17:09:58.601Z,26.76
2019-05-30T17:15:02.212Z,26.42
2019-05-30T17:20:09.159Z,28.22
2019-05-30T17:25:12.768Z,27.52
2019-05-30T17:30:17.500Z,27.98
2019-05-30T17:35:21.974Z,29.19
2019-05-30T17:40:41.214Z,29.09
2019-05-30T17:45:30.630Z,29.98
2019-05-30T17:50:34.043Z,30.26
2019-05-30T17:55:38.656Z,30.82
2019-05-30T18:00:42.014Z,31.26
2019-05-30T18:05:45.430Z,31.26
2019-05-30T18:10:53.886Z,31.58
2019-05-30T18:15:53.905Z,31.86
2019-05-30T18:20:57.247Z,32.48
2019-05-30T18:26:00.632Z,34.14
2019-05-30T18:31:03.978Z,33.71
2019-05-30T18:36:07.317Z,34.00
2019-05-30T18:41:13.009Z,34.98
2019-05-30T18:46:15.848Z,35.07
2019-05-30T18:51:19.214Z,35.34
2019-05-30T18:56:22.559Z,36.16
2019-05-30T19:01:27.287Z,41.13
2019-05-30T19:06:31.925Z,41.70
2019-05-30T19:11:36.981Z,41.34
2019-05-30T19:16:40.411Z,41.51
2019-05-30T19:21:43.854Z,41.17
2019-05-30T19:26:47.311Z,42.35
2019-05-30T19:31:50.756Z,45.88
2019-05-30T19:41:57.650Z,46.43
2019-05-30T19:47:01.293Z,45.74
2019-05-30T19:52:04.736Z,44.77
2019-05-30T19:57:08.096Z,49.19
2019-05-30T20:02:11.454Z,47.17
2019-05-30T20:07:15.004Z,51.54
2019-05-30T20:12:18.415Z,54.47
2019-05-30T20:17:21.890Z,55.04
2019-05-30T20:22:25.294Z,52.48
2019-05-30T20:27:28.939Z,55.44
2019-05-30T20:32:32.282Z,57.82
2019-05-30T20:37:36.763Z,57.66
2019-05-30T20:42:41.072Z,55.79
2019-05-30T20:47:44.620Z,56.42
2019-05-30T20:52:48.050Z,56.99
2019-05-30T20:57:51.494Z,57.83
2019-05-30T21:02:55.065Z,57.23
2019-05-30T21:07:58.830Z,54.31
2019-05-30T21:13:04.101Z,57.57
2019-05-30T21:18:07.920Z,55.31
2019-05-30T21:23:11.367Z,55.17
2019-05-30T21:28:15.752Z,54.96
2019-05-30T21:33:19.203Z,55.53
2019-05-30T21:38:22.618Z,55.43
2019-05-30T21:43:28.010Z,60.60
2019-05-30T21:48:31.331Z,58.98
2019-05-30T21:53:34.770Z,62.03
2019-05-30T21:58:39.984Z,62.45
2019-05-30T22:03:44.894Z,64.23
2019-05-30T22:08:49.310Z,64.88
2019-05-30T22:13:53.127Z,66.65
2019-05-30T22:18:56.491Z,66.47
2019-05-30T22:23:59.886Z,67.03
2019-05-30T22:29:04.768Z,67.26
2019-05-30T22:34:08.141Z,64.74
2019-05-30T22:39:11.559Z,66.64
2019-05-30T22:44:15.037Z,66.94
2019-05-30T22:49:18.393Z,67.47
2019-05-30T22:54:22.995Z,63.13
2019-05-30T22:59:26.438Z,62.62
2019-05-30T23:04:29.788Z,62.41
2019-05-30T23:09:33.364Z,61.88
2019-05-30T23:14:36.942Z,62.06
2019-05-30T23:19:40.318Z,62.27
2019-05-30T23:24:43.790Z,62.80
2019-05-30T23:29:47.683Z,62.83
2019-05-30T23:34:52.173Z,65.33
2019-05-30T23:39:56.810Z,63.46
2019-05-30T23:45:00.404Z,61.87
2019-05-30T23:50:07.424Z,61.70
2019-05-30T23:55:10.965Z,61.70
